sensor_id;sensor_type;location;lat;lon;timestamp;pressure;altitude;pressure_sealevel;temperature;humidity
76732;BME280;65656;51.130;13.658;2023-03-23T00:02:35;98572.78;;;11.84;61.29
76732;BME280;65656;51.130;13.658;2023-03-23T00:06:35;98572.75;;;11.79;61.40
76732;BME280;65656;51.130;13.658;2023-03-23T00:10:35;98576.63;;;11.83;60.78
76732;BME280;65656;51.130;13.658;2023-03-23T00:14:36;98574.97;;;11.82;61.11
76732;BME280;65656;51.130;13.658;2023-03-23T00:18:38;98568.94;;;11.85;60.91
76732;BME280;65656;51.130;13.658;2023-03-23T00:22:38;98567.84;;;11.91;61.11
76732;BME280;65656;51.130;13.658;2023-03-23T00:26:40;98565.91;;;11.86;60.80
76732;BME280;65656;51.130;13.658;2023-03-23T00:30:41;98563.69;;;11.88;60.12
76732;BME280;65656;51.130;13.658;2023-03-23T00:34:43;98565.09;;;11.81;60.77
76732;BME280;65656;51.130;13.658;2023-03-23T00:38:43;98564.28;;;11.75;60.45
76732;BME280;65656;51.130;13.658;2023-03-23T00:42:43;98571.13;;;11.83;60.34
76732;BME280;65656;51.130;13.658;2023-03-23T00:46:45;98564.53;;;11.89;59.64
76732;BME280;65656;51.130;13.658;2023-03-23T00:50:47;98558.44;;;12.02;58.90
76732;BME280;65656;51.130;13.658;2023-03-23T00:54:48;98557.88;;;12.05;58.25
76732;BME280;65656;51.130;13.658;2023-03-23T00:58:48;98549.63;;;12.10;58.67
76732;BME280;65656;51.130;13.658;2023-03-23T01:02:49;98543.56;;;12.13;58.04
76732;BME280;65656;51.130;13.658;2023-03-23T01:06:51;98535.88;;;12.15;57.58
76732;BME280;65656;51.130;13.658;2023-03-23T01:11:02;98518.25;;;12.21;57.31
76732;BME280;65656;51.130;13.658;2023-03-23T01:15:03;98522.16;;;12.15;57.11
76732;BME280;65656;51.130;13.658;2023-03-23T01:19:03;98520.06;;;11.92;58.14
76732;BME280;65656;51.130;13.658;2023-03-23T01:23:05;98502.25;;;11.84;59.16
76732;BME280;65656;51.130;13.658;2023-03-23T01:27:05;98509.66;;;11.84;58.16
76732;BME280;65656;51.130;13.658;2023-03-23T01:31:08;98500.84;;;11.87;57.91
76732;BME280;65656;51.130;13.658;2023-03-23T01:35:08;98495.88;;;11.94;57.75
76732;BME280;65656;51.130;13.658;2023-03-23T01:39:11;98495.94;;;11.84;58.75
76732;BME280;65656;51.130;13.658;2023-03-23T01:43:13;98487.69;;;11.79;58.92
76732;BME280;65656;51.130;13.658;2023-03-23T01:47:14;98485.72;;;11.94;57.18
76732;BME280;65656;51.130;13.658;2023-03-23T01:51:17;98489.72;;;12.17;56.08
76732;BME280;65656;51.130;13.658;2023-03-23T01:55:20;98489.22;;;12.10;57.10
76732;BME280;65656;51.130;13.658;2023-03-23T01:59:23;98490.09;;;12.01;57.03
76732;BME280;65656;51.130;13.658;2023-03-23T02:03:24;98489.28;;;11.95;57.05
76732;BME280;65656;51.130;13.658;2023-03-23T02:07:25;98488.19;;;11.96;56.73
76732;BME280;65656;51.130;13.658;2023-03-23T02:11:27;98492.56;;;12.02;56.27
76732;BME280;65656;51.130;13.658;2023-03-23T02:15:34;98490.41;;;11.89;57.27
76732;BME280;65656;51.130;13.658;2023-03-23T02:19:52;98484.84;;;12.09;56.45
76732;BME280;65656;51.130;13.658;2023-03-23T02:28:42;98477.09;;;12.16;56.36
76732;BME280;65656;51.130;13.658;2023-03-23T02:33:18;98476.38;;;11.95;56.51
76732;BME280;65656;51.130;13.658;2023-03-23T02:37:29;98479.44;;;11.89;56.95
76732;BME280;65656;51.130;13.658;2023-03-23T02:41:36;98472.28;;;11.93;57.12
76732;BME280;65656;51.130;13.658;2023-03-23T02:45:37;98480.53;;;11.88;57.27
76732;BME280;65656;51.130;13.658;2023-03-23T02:49:40;98485.53;;;11.70;58.03
76732;BME280;65656;51.130;13.658;2023-03-23T02:53:44;98483.88;;;11.69;58.14
76732;BME280;65656;51.130;13.658;2023-03-23T02:57:46;98483.66;;;11.56;57.55
76732;BME280;65656;51.130;13.658;2023-03-23T03:02:11;98477.38;;;11.45;58.06
76732;BME280;65656;51.130;13.658;2023-03-23T03:06:22;98470.53;;;11.42;58.19
76732;BME280;65656;51.130;13.658;2023-03-23T03:10:27;98465.88;;;11.33;58.28
76732;BME280;65656;51.130;13.658;2023-03-23T03:14:33;98458.72;;;11.47;57.57
76732;BME280;65656;51.130;13.658;2023-03-23T03:18:42;98457.59;;;11.53;57.60
76732;BME280;65656;51.130;13.658;2023-03-23T03:22:46;98453.72;;;11.64;57.54
76732;BME280;65656;51.130;13.658;2023-03-23T03:26:50;98452.91;;;11.64;57.19
76732;BME280;65656;51.130;13.658;2023-03-23T03:30:54;98454.81;;;11.68;56.95
76732;BME280;65656;51.130;13.658;2023-03-23T03:34:56;98443.53;;;11.75;57.01
76732;BME280;65656;51.130;13.658;2023-03-23T03:38:58;98447.63;;;11.83;56.60
76732;BME280;65656;51.130;13.658;2023-03-23T03:43:00;98443.72;;;11.99;56.06
76732;BME280;65656;51.130;13.658;2023-03-23T03:47:01;98442.31;;;12.07;56.01
76732;BME280;65656;51.130;13.658;2023-03-23T03:51:01;98440.00;;;12.24;54.79
76732;BME280;65656;51.130;13.658;2023-03-23T03:55:04;98436.88;;;12.36;55.20
76732;BME280;65656;51.130;13.658;2023-03-23T03:59:05;98443.38;;;12.50;54.72
76732;BME280;65656;51.130;13.658;2023-03-23T04:03:05;98443.88;;;12.52;55.07
76732;BME280;65656;51.130;13.658;2023-03-23T04:07:05;98444.19;;;12.50;54.68
76732;BME280;65656;51.130;13.658;2023-03-23T04:11:08;98442.22;;;12.56;55.29
76732;BME280;65656;51.130;13.658;2023-03-23T04:15:09;98444.47;;;12.49;55.17
76732;BME280;65656;51.130;13.658;2023-03-23T04:19:09;98435.16;;;12.45;55.49
76732;BME280;65656;51.130;13.658;2023-03-23T04:23:10;98423.13;;;12.36;56.80
76732;BME280;65656;51.130;13.658;2023-03-23T04:27:12;98425.34;;;12.34;56.25
76732;BME280;65656;51.130;13.658;2023-03-23T04:31:12;98426.31;;;12.53;55.84
76732;BME280;65656;51.130;13.658;2023-03-23T04:35:13;98430.16;;;12.52;56.34
76732;BME280;65656;51.130;13.658;2023-03-23T04:39:14;98430.16;;;12.52;56.16
76732;BME280;65656;51.130;13.658;2023-03-23T04:43:15;98430.66;;;12.59;56.36
76732;BME280;65656;51.130;13.658;2023-03-23T04:47:16;98430.75;;;12.49;56.91
76732;BME280;65656;51.130;13.658;2023-03-23T04:51:16;98426.53;;;12.62;56.78
76732;BME280;65656;51.130;13.658;2023-03-23T04:55:17;98420.75;;;12.58;56.40
76732;BME280;65656;51.130;13.658;2023-03-23T04:59:19;98415.91;;;12.45;56.79
76732;BME280;65656;51.130;13.658;2023-03-23T05:03:20;98422.53;;;12.44;57.40
76732;BME280;65656;51.130;13.658;2023-03-23T05:07:20;98409.72;;;12.29;57.55
76732;BME280;65656;51.130;13.658;2023-03-23T05:11:21;98413.31;;;12.30;58.16
76732;BME280;65656;51.130;13.658;2023-03-23T05:15:22;98418.75;;;12.35;57.68
76732;BME280;65656;51.130;13.658;2023-03-23T05:19:23;98428.63;;;12.36;57.55
76732;BME280;65656;51.130;13.658;2023-03-23T05:23:23;98416.72;;;12.50;57.12
76732;BME280;65656;51.130;13.658;2023-03-23T05:27:24;98421.38;;;12.50;57.14
76732;BME280;65656;51.130;13.658;2023-03-23T05:31:26;98422.19;;;12.50;57.45
76732;BME280;65656;51.130;13.658;2023-03-23T05:35:26;98412.03;;;12.51;57.56
76732;BME280;65656;51.130;13.658;2023-03-23T05:39:27;98427.38;;;12.57;57.28
76732;BME280;65656;51.130;13.658;2023-03-23T05:43:28;98426.25;;;12.58;56.81
76732;BME280;65656;51.130;13.658;2023-03-23T05:47:29;98422.69;;;12.58;57.39
76732;BME280;65656;51.130;13.658;2023-03-23T05:51:30;98425.75;;;12.56;57.72
76732;BME280;65656;51.130;13.658;2023-03-23T05:55:30;98421.28;;;12.60;58.26
76732;BME280;65656;51.130;13.658;2023-03-23T05:59:31;98422.59;;;12.68;56.41
76732;BME280;65656;51.130;13.658;2023-03-23T06:03:33;98437.13;;;12.73;56.72
76732;BME280;65656;51.130;13.658;2023-03-23T06:11:36;98432.94;;;12.81;56.94
76732;BME280;65656;51.130;13.658;2023-03-23T06:15:36;98427.28;;;12.67;58.20
76732;BME280;65656;51.130;13.658;2023-03-23T06:19:38;98422.75;;;12.81;56.98
76732;BME280;65656;51.130;13.658;2023-03-23T06:23:38;98428.84;;;12.78;57.32
76732;BME280;65656;51.130;13.658;2023-03-23T06:27:39;98418.34;;;12.86;55.95
76732;BME280;65656;51.130;13.658;2023-03-23T06:31:41;98424.88;;;12.90;55.61
76732;BME280;65656;51.130;13.658;2023-03-23T06:35:44;98430.75;;;13.07;56.30
76732;BME280;65656;51.130;13.658;2023-03-23T06:39:44;98431.75;;;13.21;55.73
76732;BME280;65656;51.130;13.658;2023-03-23T06:43:44;98438.06;;;13.46;54.26
76732;BME280;65656;51.130;13.658;2023-03-23T06:47:45;98443.47;;;13.56;54.03
76732;BME280;65656;51.130;13.658;2023-03-23T06:51:47;98448.84;;;13.66;53.91
76732;BME280;65656;51.130;13.658;2023-03-23T06:55:47;98445.44;;;13.74;54.08
76732;BME280;65656;51.130;13.658;2023-03-23T06:59:48;98446.66;;;13.87;53.90
76732;BME280;65656;51.130;13.658;2023-03-23T07:03:48;98455.09;;;13.96;53.38
76732;BME280;65656;51.130;13.658;2023-03-23T07:07:50;98454.72;;;14.21;52.13
76732;BME280;65656;51.130;13.658;2023-03-23T07:11:50;98460.09;;;14.31;52.54
76732;BME280;65656;51.130;13.658;2023-03-23T07:15:51;98463.84;;;14.40;51.74
76732;BME280;65656;51.130;13.658;2023-03-23T07:19:51;98458.38;;;14.35;51.97
76732;BME280;65656;51.130;13.658;2023-03-23T07:23:53;98465.09;;;14.29;52.27
76732;BME280;65656;51.130;13.658;2023-03-23T07:27:53;98488.31;;;14.23;52.74
76732;BME280;65656;51.130;13.658;2023-03-23T07:31:54;98479.47;;;14.26;52.15
76732;BME280;65656;51.130;13.658;2023-03-23T07:35:54;98486.59;;;14.27;52.77
76732;BME280;65656;51.130;13.658;2023-03-23T07:39:56;98484.88;;;14.31;52.68
76732;BME280;65656;51.130;13.658;2023-03-23T07:43:56;98488.25;;;14.28;52.77
76732;BME280;65656;51.130;13.658;2023-03-23T07:47:57;98495.63;;;14.33;53.25
76732;BME280;65656;51.130;13.658;2023-03-23T07:51:58;98494.94;;;14.22;52.58
76732;BME280;65656;51.130;13.658;2023-03-23T07:56:00;98501.00;;;14.43;52.45
76732;BME280;65656;51.130;13.658;2023-03-23T08:00:00;98505.09;;;14.45;52.40
76732;BME280;65656;51.130;13.658;2023-03-23T08:04:00;98506.41;;;14.29;53.11
76732;BME280;65656;51.130;13.658;2023-03-23T08:08:01;98508.88;;;14.31;52.26
76732;BME280;65656;51.130;13.658;2023-03-23T08:12:03;98512.53;;;14.26;53.07
76732;BME280;65656;51.130;13.658;2023-03-23T08:16:04;98521.91;;;14.25;53.30
76732;BME280;65656;51.130;13.658;2023-03-23T08:20:05;98518.28;;;14.06;53.96
76732;BME280;65656;51.130;13.658;2023-03-23T08:24:06;98509.97;;;14.11;53.72
76732;BME280;65656;51.130;13.658;2023-03-23T08:28:08;98522.31;;;13.94;54.38
76732;BME280;65656;51.130;13.658;2023-03-23T08:32:09;98534.34;;;13.99;55.21
76732;BME280;65656;51.130;13.658;2023-03-23T08:36:09;98532.84;;;13.87;55.55
76732;BME280;65656;51.130;13.658;2023-03-23T08:40:11;98529.50;;;13.90;55.03
76732;BME280;65656;51.130;13.658;2023-03-23T08:44:13;98531.84;;;13.78;55.95
76732;BME280;65656;51.130;13.658;2023-03-23T08:48:14;98545.66;;;13.49;59.33
76732;BME280;65656;51.130;13.658;2023-03-23T08:52:14;98544.56;;;13.16;60.11
76732;BME280;65656;51.130;13.658;2023-03-23T08:56:14;98532.25;;;13.08;60.90
76732;BME280;65656;51.130;13.658;2023-03-23T09:00:19;98545.16;;;13.08;61.26
76732;BME280;65656;51.130;13.658;2023-03-23T09:04:20;98548.41;;;13.15;60.82
76732;BME280;65656;51.130;13.658;2023-03-23T09:08:20;98539.72;;;13.03;62.10
76732;BME280;65656;51.130;13.658;2023-03-23T09:12:21;98542.47;;;12.98;63.64
76732;BME280;65656;51.130;13.658;2023-03-23T09:16:22;98544.78;;;12.86;64.67
76732;BME280;65656;51.130;13.658;2023-03-23T09:20:24;98556.44;;;12.72;65.62
76732;BME280;65656;51.130;13.658;2023-03-23T09:24:25;98551.03;;;12.52;67.48
76732;BME280;65656;51.130;13.658;2023-03-23T09:28:25;98552.81;;;12.33;69.40
76732;BME280;65656;51.130;13.658;2023-03-23T09:32:27;98558.88;;;12.30;71.42
76732;BME280;65656;51.130;13.658;2023-03-23T09:36:28;98562.16;;;12.32;70.31
76732;BME280;65656;51.130;13.658;2023-03-23T09:40:33;98562.16;;;12.32;73.06
76732;BME280;65656;51.130;13.658;2023-03-23T09:44:46;98561.22;;;12.51;72.49
76732;BME280;65656;51.130;13.658;2023-03-23T09:48:52;98566.91;;;12.65;72.40
76732;BME280;65656;51.130;13.658;2023-03-23T09:52:55;98560.91;;;12.97;71.23
76732;BME280;65656;51.130;13.658;2023-03-23T09:56:58;98554.66;;;13.26;68.82
76732;BME280;65656;51.130;13.658;2023-03-23T10:01:02;98542.91;;;13.49;68.41
76732;BME280;65656;51.130;13.658;2023-03-23T10:05:25;98537.53;;;13.63;70.39
76732;BME280;65656;51.130;13.658;2023-03-23T10:09:28;98540.59;;;13.85;67.70
76732;BME280;65656;51.130;13.658;2023-03-23T10:13:43;98555.22;;;14.05;64.58
76732;BME280;65656;51.130;13.658;2023-03-23T10:17:50;98546.25;;;14.18;65.35
76732;BME280;65656;51.130;13.658;2023-03-23T10:21:56;98555.19;;;14.29;64.48
76732;BME280;65656;51.130;13.658;2023-03-23T10:26:04;98557.41;;;14.51;63.17
76732;BME280;65656;51.130;13.658;2023-03-23T10:30:15;98561.06;;;14.65;65.10
76732;BME280;65656;51.130;13.658;2023-03-23T10:34:21;98553.09;;;14.63;64.68
76732;BME280;65656;51.130;13.658;2023-03-23T10:38:27;98552.53;;;14.42;64.01
76732;BME280;65656;51.130;13.658;2023-03-23T10:42:30;98540.19;;;14.16;64.50
76732;BME280;65656;51.130;13.658;2023-03-23T10:46:37;98533.97;;;14.29;65.24
76732;BME280;65656;51.130;13.658;2023-03-23T10:50:41;98531.88;;;14.21;65.70
76732;BME280;65656;51.130;13.658;2023-03-23T10:54:56;98536.22;;;14.27;67.01
76732;BME280;65656;51.130;13.658;2023-03-23T10:58:57;98535.47;;;14.40;65.40
76732;BME280;65656;51.130;13.658;2023-03-23T11:03:00;98532.63;;;14.27;65.73
76732;BME280;65656;51.130;13.658;2023-03-23T11:07:02;98542.69;;;14.36;65.65
76732;BME280;65656;51.130;13.658;2023-03-23T11:11:14;98538.13;;;14.51;64.12
76732;BME280;65656;51.130;13.658;2023-03-23T11:15:28;98548.63;;;14.48;65.87
76732;BME280;65656;51.130;13.658;2023-03-23T11:19:31;98537.13;;;14.41;65.28
76732;BME280;65656;51.130;13.658;2023-03-23T11:23:33;98552.13;;;14.30;63.81
76732;BME280;65656;51.130;13.658;2023-03-23T11:27:38;98551.56;;;14.33;64.00
76732;BME280;65656;51.130;13.658;2023-03-23T11:31:40;98556.47;;;14.36;64.25
76732;BME280;65656;51.130;13.658;2023-03-23T11:35:43;98566.50;;;14.27;63.66
76732;BME280;65656;51.130;13.658;2023-03-23T11:39:49;98571.97;;;14.08;65.07
76732;BME280;65656;51.130;13.658;2023-03-23T11:43:54;98576.19;;;13.77;67.09
76732;BME280;65656;51.130;13.658;2023-03-23T11:48:01;98586.00;;;13.59;71.12
76732;BME280;65656;51.130;13.658;2023-03-23T11:52:11;98578.84;;;13.58;73.50
76732;BME280;65656;51.130;13.658;2023-03-23T11:56:19;98563.50;;;13.52;72.26
76732;BME280;65656;51.130;13.658;2023-03-23T12:00:23;98569.69;;;13.38;70.57
76732;BME280;65656;51.130;13.658;2023-03-23T12:04:34;98578.09;;;13.23;73.48
76732;BME280;65656;51.130;13.658;2023-03-23T12:08:46;98565.97;;;13.19;72.24
76732;BME280;65656;51.130;13.658;2023-03-23T12:12:55;98579.19;;;13.17;74.75
76732;BME280;65656;51.130;13.658;2023-03-23T12:17:05;98566.38;;;13.36;73.39
76732;BME280;65656;51.130;13.658;2023-03-23T12:21:18;98558.47;;;13.59;70.72
76732;BME280;65656;51.130;13.658;2023-03-23T12:25:42;98563.19;;;13.82;70.81
76732;BME280;65656;51.130;13.658;2023-03-23T12:30:04;98558.09;;;13.94;69.40
76732;BME280;65656;51.130;13.658;2023-03-23T12:34:19;98550.66;;;13.95;68.98
76732;BME280;65656;51.130;13.658;2023-03-23T12:38:35;98561.88;;;13.99;67.69
76732;BME280;65656;51.130;13.658;2023-03-23T12:42:45;98553.44;;;14.14;67.86
76732;BME280;65656;51.130;13.658;2023-03-23T12:46:58;98551.63;;;14.28;67.17
76732;BME280;65656;51.130;13.658;2023-03-23T12:51:20;98554.50;;;14.61;66.17
76732;BME280;65656;51.130;13.658;2023-03-23T12:55:25;98551.16;;;14.64;66.31
76732;BME280;65656;51.130;13.658;2023-03-23T12:59:34;98556.53;;;14.74;64.99
76732;BME280;65656;51.130;13.658;2023-03-23T13:03:40;98557.97;;;15.23;63.87
76732;BME280;65656;51.130;13.658;2023-03-23T13:07:46;98550.53;;;15.04;62.71
76732;BME280;65656;51.130;13.658;2023-03-23T13:11:48;98556.09;;;15.51;60.72
76732;BME280;65656;51.130;13.658;2023-03-23T13:15:56;98559.56;;;16.03;59.36
76732;BME280;65656;51.130;13.658;2023-03-23T13:20:39;98546.91;;;15.23;60.48
76732;BME280;65656;51.130;13.658;2023-03-23T13:24:45;98529.84;;;14.88;61.43
76732;BME280;65656;51.130;13.658;2023-03-23T13:28:57;98529.59;;;14.85;61.93
76732;BME280;65656;51.130;13.658;2023-03-23T13:33:03;98512.09;;;14.94;63.14
76732;BME280;65656;51.130;13.658;2023-03-23T13:37:05;98506.84;;;15.12;62.05
76732;BME280;65656;51.130;13.658;2023-03-23T13:41:12;98491.16;;;15.53;59.10
76732;BME280;65656;51.130;13.658;2023-03-23T13:45:20;98502.53;;;15.52;57.95
76732;BME280;65656;51.130;13.658;2023-03-23T13:49:22;98496.97;;;15.38;56.38
76732;BME280;65656;51.130;13.658;2023-03-23T13:53:26;98491.88;;;15.45;56.45
76732;BME280;65656;51.130;13.658;2023-03-23T13:57:37;98489.53;;;15.52;58.16
76732;BME280;65656;51.130;13.658;2023-03-23T14:01:39;98493.97;;;16.08;55.11
76732;BME280;65656;51.130;13.658;2023-03-23T14:05:40;98506.50;;;16.42;55.54
76732;BME280;65656;51.130;13.658;2023-03-23T14:09:43;98494.38;;;16.88;51.94
76732;BME280;65656;51.130;13.658;2023-03-23T14:13:50;98492.47;;;17.19;51.52
76732;BME280;65656;51.130;13.658;2023-03-23T14:17:51;98471.00;;;17.78;50.84
76732;BME280;65656;51.130;13.658;2023-03-23T14:21:55;98477.56;;;17.60;50.06
76732;BME280;65656;51.130;13.658;2023-03-23T14:25:59;98485.84;;;16.76;52.07
76732;BME280;65656;51.130;13.658;2023-03-23T14:30:03;98498.06;;;15.97;54.88
76732;BME280;65656;51.130;13.658;2023-03-23T14:34:12;98508.50;;;15.73;56.16
76732;BME280;65656;51.130;13.658;2023-03-23T14:38:16;98502.03;;;15.50;57.51
76732;BME280;65656;51.130;13.658;2023-03-23T14:42:29;98504.84;;;15.45;57.46
76732;BME280;65656;51.130;13.658;2023-03-23T14:46:31;98502.50;;;15.38;56.95
76732;BME280;65656;51.130;13.658;2023-03-23T14:50:37;98515.63;;;15.14;56.90
76732;BME280;65656;51.130;13.658;2023-03-23T14:54:38;98515.53;;;15.19;57.38
76732;BME280;65656;51.130;13.658;2023-03-23T14:58:43;98494.75;;;15.08;57.58
76732;BME280;65656;51.130;13.658;2023-03-23T15:02:47;98506.59;;;14.94;58.44
76732;BME280;65656;51.130;13.658;2023-03-23T15:06:51;98504.91;;;14.93;59.04
76732;BME280;65656;51.130;13.658;2023-03-23T15:10:55;98508.34;;;14.85;59.20
76732;BME280;65656;51.130;13.658;2023-03-23T15:14:57;98496.88;;;14.78;58.77
76732;BME280;65656;51.130;13.658;2023-03-23T15:19:01;98512.09;;;14.94;58.28
76732;BME280;65656;51.130;13.658;2023-03-23T15:23:06;98515.38;;;14.96;57.47
76732;BME280;65656;51.130;13.658;2023-03-23T15:27:12;98516.56;;;14.90;57.64
76732;BME280;65656;51.130;13.658;2023-03-23T15:31:13;98518.13;;;14.77;58.68
76732;BME280;65656;51.130;13.658;2023-03-23T15:35:16;98523.06;;;14.81;59.43
76732;BME280;65656;51.130;13.658;2023-03-23T15:39:17;98527.22;;;14.78;60.09
76732;BME280;65656;51.130;13.658;2023-03-23T15:43:18;98537.16;;;14.60;60.43
76732;BME280;65656;51.130;13.658;2023-03-23T15:47:19;98539.09;;;14.60;60.95
76732;BME280;65656;51.130;13.658;2023-03-23T15:51:23;98538.44;;;14.49;61.30
76732;BME280;65656;51.130;13.658;2023-03-23T15:55:27;98550.59;;;14.43;60.66
76732;BME280;65656;51.130;13.658;2023-03-23T15:59:27;98542.03;;;14.44;59.59
76732;BME280;65656;51.130;13.658;2023-03-23T16:03:37;98544.84;;;14.39;59.37
76732;BME280;65656;51.130;13.658;2023-03-23T16:07:41;98545.44;;;14.36;60.55
76732;BME280;65656;51.130;13.658;2023-03-23T16:11:42;98548.50;;;14.35;59.63
76732;BME280;65656;51.130;13.658;2023-03-23T16:15:45;98544.69;;;14.31;59.84
76732;BME280;65656;51.130;13.658;2023-03-23T16:19:47;98538.31;;;14.35;59.44
76732;BME280;65656;51.130;13.658;2023-03-23T16:23:50;98549.47;;;14.25;59.61
76732;BME280;65656;51.130;13.658;2023-03-23T16:27:51;98549.06;;;14.13;60.40
76732;BME280;65656;51.130;13.658;2023-03-23T16:31:53;98564.00;;;14.07;61.01
76732;BME280;65656;51.130;13.658;2023-03-23T16:35:55;98574.97;;;14.12;60.64
76732;BME280;65656;51.130;13.658;2023-03-23T16:39:58;98564.19;;;13.91;60.93
76732;BME280;65656;51.130;13.658;2023-03-23T16:43:59;98564.13;;;13.97;60.87
76732;BME280;65656;51.130;13.658;2023-03-23T16:48:01;98579.59;;;13.92;60.74
76732;BME280;65656;51.130;13.658;2023-03-23T16:52:02;98578.50;;;13.93;60.54
76732;BME280;65656;51.130;13.658;2023-03-23T16:56:05;98580.28;;;13.79;61.06
76732;BME280;65656;51.130;13.658;2023-03-23T17:04:24;98573.72;;;13.75;61.11
76732;BME280;65656;51.130;13.658;2023-03-23T17:08:26;98579.00;;;13.72;61.56
76732;BME280;65656;51.130;13.658;2023-03-23T17:12:29;98582.94;;;13.60;61.89
76732;BME280;65656;51.130;13.658;2023-03-23T17:16:31;98604.84;;;13.47;63.18
76732;BME280;65656;51.130;13.658;2023-03-23T17:20:32;98608.22;;;13.38;64.25
76732;BME280;65656;51.130;13.658;2023-03-23T17:24:34;98618.16;;;13.34;64.60
76732;BME280;65656;51.130;13.658;2023-03-23T17:28:37;98613.78;;;13.28;64.77
76732;BME280;65656;51.130;13.658;2023-03-23T17:32:38;98601.47;;;13.21;65.52
76732;BME280;65656;51.130;13.658;2023-03-23T17:36:40;98609.06;;;12.95;66.77
76732;BME280;65656;51.130;13.658;2023-03-23T17:40:41;98608.88;;;12.76;67.71
76732;BME280;65656;51.130;13.658;2023-03-23T17:44:44;98607.63;;;12.58;68.35
76732;BME280;65656;51.130;13.658;2023-03-23T17:48:46;98606.34;;;12.35;68.89
76732;BME280;65656;51.130;13.658;2023-03-23T17:52:47;98596.81;;;12.22;68.92
76732;BME280;65656;51.130;13.658;2023-03-23T17:56:49;98608.31;;;12.30;69.11
76732;BME280;65656;51.130;13.658;2023-03-23T18:00:52;98606.41;;;12.30;69.15
76732;BME280;65656;51.130;13.658;2023-03-23T18:04:55;98625.28;;;12.47;68.82
76732;BME280;65656;51.130;13.658;2023-03-23T18:08:57;98618.69;;;12.43;69.29
76732;BME280;65656;51.130;13.658;2023-03-23T18:12:58;98633.53;;;12.37;69.95
76732;BME280;65656;51.130;13.658;2023-03-23T18:17:01;98642.09;;;12.30;69.79
76732;BME280;65656;51.130;13.658;2023-03-23T18:21:04;98642.41;;;12.13;70.99
76732;BME280;65656;51.130;13.658;2023-03-23T18:25:07;98631.50;;;11.88;72.03
76732;BME280;65656;51.130;13.658;2023-03-23T18:29:08;98643.03;;;11.80;72.59
76732;BME280;65656;51.130;13.658;2023-03-23T18:33:11;98644.69;;;11.50;73.75
76732;BME280;65656;51.130;13.658;2023-03-23T18:37:13;98634.28;;;11.32;74.47
76732;BME280;65656;51.130;13.658;2023-03-23T18:41:15;98633.72;;;11.20;75.47
76732;BME280;65656;51.130;13.658;2023-03-23T18:45:17;98640.84;;;11.10;75.97
76732;BME280;65656;51.130;13.658;2023-03-23T18:49:20;98639.78;;;11.22;76.49
76732;BME280;65656;51.130;13.658;2023-03-23T18:53:22;98637.59;;;11.29;75.63
76732;BME280;65656;51.130;13.658;2023-03-23T18:57:24;98634.28;;;11.22;76.35
76732;BME280;65656;51.130;13.658;2023-03-23T19:01:26;98644.69;;;10.99;78.86
76732;BME280;65656;51.130;13.658;2023-03-23T19:05:29;98634.22;;;10.96;80.10
76732;BME280;65656;51.130;13.658;2023-03-23T19:09:32;98640.25;;;10.78;81.45
76732;BME280;65656;51.130;13.658;2023-03-23T19:13:34;98636.34;;;10.64;81.79
76732;BME280;65656;51.130;13.658;2023-03-23T19:17:35;98644.59;;;10.69;82.00
76732;BME280;65656;51.130;13.658;2023-03-23T19:21:39;98647.38;;;10.79;82.00
76732;BME280;65656;51.130;13.658;2023-03-23T19:25:40;98645.19;;;10.96;81.26
76732;BME280;65656;51.130;13.658;2023-03-23T19:29:43;98640.88;;;11.21;79.36
76732;BME280;65656;51.130;13.658;2023-03-23T19:33:44;98636.47;;;11.30;78.29
76732;BME280;65656;51.130;13.658;2023-03-23T19:37:49;98621.94;;;11.29;78.11
76732;BME280;65656;51.130;13.658;2023-03-23T19:41:50;98627.13;;;11.26;78.45
76732;BME280;65656;51.130;13.658;2023-03-23T19:45:52;98623.28;;;11.27;78.54
76732;BME280;65656;51.130;13.658;2023-03-23T19:49:53;98622.78;;;11.30;78.25
76732;BME280;65656;51.130;13.658;2023-03-23T19:53:57;98614.00;;;11.38;77.54
76732;BME280;65656;51.130;13.658;2023-03-23T19:57:58;98620.00;;;11.40;77.37
76732;BME280;65656;51.130;13.658;2023-03-23T20:02:00;98628.78;;;11.47;76.62
76732;BME280;65656;51.130;13.658;2023-03-23T20:06:04;98627.69;;;11.53;76.55
76732;BME280;65656;51.130;13.658;2023-03-23T20:10:08;98628.78;;;11.57;76.31
76732;BME280;65656;51.130;13.658;2023-03-23T20:14:10;98629.88;;;11.61;75.56
76732;BME280;65656;51.130;13.658;2023-03-23T20:18:12;98629.06;;;11.61;75.82
76732;BME280;65656;51.130;13.658;2023-03-23T20:22:13;98622.44;;;11.67;75.11
76732;BME280;65656;51.130;13.658;2023-03-23T20:26:19;98632.59;;;11.66;75.02
76732;BME280;65656;51.130;13.658;2023-03-23T20:30:20;98636.47;;;11.60;75.53
76732;BME280;65656;51.130;13.658;2023-03-23T20:34:22;98634.81;;;11.64;75.01
76732;BME280;65656;51.130;13.658;2023-03-23T20:38:24;98636.44;;;11.70;74.47
76732;BME280;65656;51.130;13.658;2023-03-23T20:42:26;98640.84;;;11.77;74.23
76732;BME280;65656;51.130;13.658;2023-03-23T20:46:28;98643.00;;;11.75;74.33
76732;BME280;65656;51.130;13.658;2023-03-23T20:50:29;98644.94;;;11.74;74.24
76732;BME280;65656;51.130;13.658;2023-03-23T20:54:31;98635.91;;;11.68;74.40
76732;BME280;65656;51.130;13.658;2023-03-23T20:58:34;98633.97;;;11.64;74.35
76732;BME280;65656;51.130;13.658;2023-03-23T21:02:36;98628.78;;;11.67;74.37
76732;BME280;65656;51.130;13.658;2023-03-23T21:06:37;98628.22;;;11.81;73.62
76732;BME280;65656;51.130;13.658;2023-03-23T21:10:39;98627.66;;;11.73;74.08
76732;BME280;65656;51.130;13.658;2023-03-23T21:14:41;98620.56;;;11.67;74.19
76732;BME280;65656;51.130;13.658;2023-03-23T21:18:43;98622.19;;;11.63;74.29
76732;BME280;65656;51.130;13.658;2023-03-23T21:22:45;98626.03;;;11.62;74.57
76732;BME280;65656;51.130;13.658;2023-03-23T21:26:46;98609.00;;;11.70;74.31